createdAt,value
2022-10-24T00:02:08.073Z,97782.94
2022-10-24T00:04:39.935Z,97787.50
2022-10-24T00:07:08.182Z,97787.00
2022-10-24T00:09:36.958Z,97790.53
2022-10-24T00:12:05.668Z,97788.91
2022-10-24T00:14:33.178Z,97791.19
2022-10-24T00:16:59.957Z,97787.97
2022-10-24T00:19:26.895Z,97788.13
2022-10-24T00:21:53.775Z,97792.72
2022-10-24T00:24:20.537Z,97793.75
2022-10-24T00:26:47.580Z,97795.47
2022-10-24T00:29:16.464Z,97796.19
2022-10-24T00:31:44.001Z,97801.16
2022-10-24T00:34:10.940Z,97798.09
2022-10-24T00:36:38.294Z,97796.13
2022-10-24T00:39:05.012Z,97796.94
2022-10-24T00:41:37.548Z,97790.63
2022-10-24T00:44:26.140Z,97793.06
2022-10-24T00:46:55.049Z,97799.38
2022-10-24T00:49:28.948Z,97801.00
2022-10-24T00:52:00.321Z,97796.66
2022-10-24T00:54:27.138Z,97801.59
2022-10-24T00:57:05.653Z,97802.69
2022-10-24T00:59:36.018Z,97803.59
2022-10-24T01:02:03.509Z,97808.34
2022-10-24T01:04:30.807Z,97807.81
2022-10-24T01:07:03.413Z,97815.81
2022-10-24T01:09:44.022Z,97812.59
2022-10-24T01:12:13.563Z,97815.09
2022-10-24T01:15:17.598Z,97818.75
2022-10-24T01:17:57.244Z,97818.50
2022-10-24T01:20:45.456Z,97818.91
2022-10-24T01:23:21.092Z,97821.97
2022-10-24T01:26:06.499Z,97827.44
2022-10-24T01:28:50.142Z,97829.16
2022-10-24T01:31:35.631Z,97836.81
2022-10-24T01:34:13.289Z,97840.69
2022-10-24T01:36:50.072Z,97855.19
2022-10-24T01:39:18.663Z,97847.28
2022-10-24T01:41:49.304Z,97858.22
2022-10-24T01:44:26.652Z,97854.88
2022-10-24T01:47:02.592Z,97858.16
2022-10-24T01:49:34.168Z,97858.38
2022-10-24T01:52:04.298Z,97854.00
2022-10-24T01:54:33.448Z,97863.56
2022-10-24T01:57:00.410Z,97859.91
2022-10-24T01:59:29.779Z,97865.63
2022-10-24T02:02:17.748Z,97867.97
2022-10-24T02:04:53.183Z,97877.97
2022-10-24T02:07:21.762Z,97871.56
2022-10-24T02:09:55.847Z,97871.06
2022-10-24T02:12:26.019Z,97871.31
2022-10-24T02:15:00.091Z,97877.81
2022-10-24T02:19:59.439Z,97876.63
2022-10-24T02:22:59.206Z,97881.00
2022-10-24T02:25:33.942Z,97885.09
2022-10-24T02:28:34.581Z,97885.09
2022-10-24T02:31:07.070Z,97886.47
2022-10-24T02:33:36.508Z,97892.59
2022-10-24T02:36:05.338Z,97895.59
2022-10-24T02:38:39.435Z,97895.81
2022-10-24T02:41:11.655Z,97907.28
2022-10-24T02:43:40.854Z,97905.91
2022-10-24T02:46:09.719Z,97922.25
2022-10-24T02:48:41.545Z,97918.94
2022-10-24T02:51:09.634Z,97924.31
2022-10-24T02:53:37.310Z,97926.47
2022-10-24T02:56:04.214Z,97927.19
2022-10-24T02:58:30.881Z,97925.50
2022-10-24T03:00:57.611Z,97932.81
2022-10-24T03:03:24.422Z,97936.59
2022-10-24T03:05:51.116Z,97935.47
2022-10-24T03:08:17.804Z,97930.78
2022-10-24T03:10:45.397Z,97937.91
2022-10-24T03:13:21.658Z,97945.84
2022-10-24T03:15:48.638Z,97947.47
2022-10-24T03:18:15.461Z,97945.53
2022-10-24T03:20:42.383Z,97955.94
2022-10-24T03:23:09.185Z,97957.53
2022-10-24T03:25:36.347Z,97961.91
2022-10-24T03:28:03.748Z,97964.66
2022-10-24T03:30:30.440Z,97977.78
2022-10-24T03:32:58.141Z,97980.72
2022-10-24T03:35:24.876Z,97984.00
2022-10-24T03:37:51.520Z,97983.19
2022-10-24T03:40:18.286Z,97986.50
2022-10-24T03:42:45.059Z,97994.16
2022-10-24T03:45:12.178Z,97989.16
2022-10-24T03:47:38.914Z,97984.22
2022-10-24T03:50:06.880Z,97992.13
2022-10-24T03:52:36.731Z,97999.88
2022-10-24T03:55:03.976Z,98005.63
2022-10-24T03:57:30.628Z,98008.59
2022-10-24T03:59:57.251Z,98017.94
2022-10-24T04:02:24.144Z,98011.88
2022-10-24T04:04:51.210Z,98018.16
2022-10-24T04:07:17.885Z,98024.97
2022-10-24T04:09:44.728Z,98028.53
2022-10-24T04:12:11.557Z,98026.59
2022-10-24T04:14:38.200Z,98036.47
2022-10-24T04:17:04.998Z,98034.31
2022-10-24T04:19:32.200Z,98035.94
2022-10-24T04:21:59.661Z,98051.59
2022-10-24T04:24:26.509Z,98046.66
2022-10-24T04:26:53.146Z,98049.09
2022-10-24T04:29:20.703Z,98048.28
2022-10-24T04:31:47.403Z,98057.00
2022-10-24T04:34:15.044Z,98057.53
2022-10-24T04:36:42.015Z,98058.63
2022-10-24T04:39:09.025Z,98062.50
2022-10-24T04:41:35.632Z,98072.66
2022-10-24T04:44:02.298Z,98076.22
2022-10-24T04:46:29.141Z,98086.59
2022-10-24T04:48:55.922Z,98090.47
2022-10-24T04:51:22.829Z,98090.47
2022-10-24T04:53:51.741Z,98092.41
2022-10-24T04:56:19.922Z,98093.50
2022-10-24T04:58:46.809Z,98100.66
2022-10-24T05:01:15.060Z,98109.47
2022-10-24T05:03:42.557Z,98114.66
2022-10-24T05:06:09.395Z,98111.91
2022-10-24T05:08:36.734Z,98125.13
2022-10-24T05:11:03.728Z,98121.25
2022-10-24T05:14:15.079Z,98126.25
2022-10-24T05:16:43.251Z,98138.03
2022-10-24T05:19:10.350Z,98143.28
2022-10-24T05:21:37.208Z,98144.63
2022-10-24T05:24:04.473Z,98142.75
2022-10-24T05:26:31.555Z,98155.66
2022-10-24T05:28:58.441Z,98147.44
2022-10-24T05:31:25.405Z,98159.22
2022-10-24T05:33:52.291Z,98164.72
2022-10-24T05:36:19.040Z,98163.91
2022-10-24T05:38:45.810Z,98166.66
2022-10-24T05:41:12.793Z,98170.22
2022-10-24T05:43:39.407Z,98174.06
2022-10-24T05:46:07.455Z,98180.09
2022-10-24T05:48:34.184Z,98181.19
2022-10-24T05:51:01.390Z,98182.03
2022-10-24T05:53:28.048Z,98185.59
2022-10-24T05:55:54.712Z,98191.06
2022-10-24T05:58:22.431Z,98193.81
2022-10-24T06:00:53.510Z,98206.72
2022-10-24T06:03:21.439Z,98202.69
2022-10-24T06:05:49.152Z,98202.09
2022-10-24T06:08:17.236Z,98211.16
2022-10-24T06:10:51.449Z,98215.53
2022-10-24T06:13:18.861Z,98219.41
2022-10-24T06:15:45.954Z,98213.91
2022-10-24T06:18:13.144Z,98225.69
2022-10-24T06:20:39.869Z,98221.84
2022-10-24T06:23:12.519Z,98227.31
2022-10-24T06:25:55.536Z,98220.22
2022-10-24T06:28:22.565Z,98225.69
2022-10-24T06:31:00.082Z,98229.53
2022-10-24T06:33:32.056Z,98238.31
2022-10-24T06:36:05.555Z,98239.94
2022-10-24T06:38:33.728Z,98252.53
2022-10-24T06:41:13.142Z,98245.41
2022-10-24T06:43:41.718Z,98255.28
2022-10-24T06:46:13.294Z,98257.44
2022-10-24T06:48:40.510Z,98261.88
2022-10-24T06:51:08.695Z,98260.50
2022-10-24T06:53:35.547Z,98259.06
2022-10-24T06:56:06.562Z,98265.19
2022-10-24T06:58:34.655Z,98272.28
2022-10-24T07:01:09.061Z,98271.47
2022-10-24T07:03:35.778Z,98276.72
2022-10-24T07:06:08.896Z,98284.97
2022-10-24T07:08:35.561Z,98291.56
2022-10-24T07:11:03.396Z,98289.09
2022-10-24T07:13:30.544Z,98290.44
2022-10-24T07:15:57.362Z,98300.06
2022-10-24T07:18:24.653Z,98291.56
2022-10-24T07:20:51.595Z,98300.38
2022-10-24T07:23:19.519Z,98304.50
2022-10-24T07:25:46.430Z,98299.88
2022-10-24T07:28:13.306Z,98313.03
2022-10-24T07:30:40.591Z,98318.53
2022-10-24T07:33:07.231Z,98320.78
2022-10-24T07:35:33.916Z,98327.88
2022-10-24T07:38:00.722Z,98340.25
2022-10-24T07:40:27.348Z,98338.84
2022-10-24T07:42:55.088Z,98339.91
2022-10-24T07:45:22.343Z,98344.03
2022-10-24T07:47:49.016Z,98345.97
2022-10-24T07:50:17.300Z,98346.53
2022-10-24T07:52:43.880Z,98348.72
2022-10-24T07:55:10.503Z,98350.41
2022-10-24T07:57:37.249Z,98362.75
2022-10-24T08:00:05.936Z,98366.31
2022-10-24T08:02:33.151Z,98371.72
2022-10-24T08:04:59.926Z,98367.28
2022-10-24T08:07:26.616Z,98371.44
2022-10-24T08:09:53.294Z,98368.41
2022-10-24T08:12:20.413Z,98371.44
2022-10-24T08:14:47.473Z,98368.97
2022-10-24T08:17:17.959Z,98371.72
2022-10-24T08:19:45.156Z,98380.72
2022-10-24T08:22:13.260Z,98383.69
2022-10-24T08:24:40.729Z,98391.94
2022-10-24T08:27:07.776Z,98388.69
2022-10-24T08:29:35.563Z,98392.25
2022-10-24T08:32:02.515Z,98386.44
2022-10-24T08:34:29.303Z,98394.09
2022-10-24T08:36:56.128Z,98387.50
2022-10-24T08:39:25.115Z,98386.38
2022-10-24T08:41:59.278Z,98387.44
2022-10-24T08:44:40.070Z,98393.00
2022-10-24T08:47:45.232Z,98389.69
2022-10-24T08:50:24.649Z,98388.00
2022-10-24T08:53:27.766Z,98392.94
2022-10-24T08:56:00.490Z,98400.06
2022-10-24T08:58:38.006Z,98392.34
2022-10-24T09:01:15.154Z,98402.22
2022-10-24T09:04:01.617Z,98400.28
2022-10-24T09:06:32.119Z,98400.53
2022-10-24T09:08:59.509Z,98404.59
2022-10-24T09:11:52.454Z,98405.16
2022-10-24T09:14:33.136Z,98404.84
2022-10-24T09:17:22.401Z,98407.00
2022-10-24T09:20:00.483Z,98406.94
2022-10-24T09:22:30.396Z,98413.50
2022-10-24T09:25:14.506Z,98408.50
2022-10-24T09:27:43.868Z,98419.22
2022-10-24T09:30:22.552Z,98419.66
2022-10-24T09:32:49.861Z,98423.47
2022-10-24T09:35:22.094Z,98428.69
2022-10-24T09:37:58.052Z,98424.75
2022-10-24T09:40:28.164Z,98423.06
2022-10-24T09:43:05.116Z,98429.00
2022-10-24T09:45:43.898Z,98423.41
2022-10-24T09:48:32.575Z,98439.53
2022-10-24T09:51:00.420Z,98445.69
2022-10-24T09:53:28.260Z,98446.00
2022-10-24T09:56:00.882Z,98445.25
2022-10-24T09:58:34.479Z,98449.13
2022-10-24T10:01:16.543Z,98439.53
2022-10-24T10:03:44.736Z,98446.78
2022-10-24T10:06:20.636Z,98446.78
2022-10-24T10:08:56.263Z,98443.66
2022-10-24T10:11:35.196Z,98458.66
2022-10-24T10:14:26.710Z,98456.63
2022-10-24T10:17:06.435Z,98452.50
2022-10-24T10:19:37.660Z,98454.28
2022-10-24T10:22:22.741Z,98458.56
2022-10-24T10:24:49.905Z,98461.00
2022-10-24T10:27:36.596Z,98456.34
2022-10-24T10:30:12.466Z,98468.34
2022-10-24T10:32:45.057Z,98459.59
2022-10-24T10:35:33.614Z,98464.53
2022-10-24T10:38:15.433Z,98466.97
2022-10-24T10:40:47.350Z,98470.22
2022-10-24T10:43:40.573Z,98469.25
2022-10-24T10:46:24.108Z,98470.88
2022-10-24T10:49:29.185Z,98470.97
2022-10-24T10:52:05.259Z,98468.50
2022-10-24T10:54:44.454Z,98469.63
2022-10-24T10:57:23.407Z,98455.97
2022-10-24T11:00:25.016Z,98477.91
2022-10-24T11:03:13.412Z,98475.97
2022-10-24T11:06:06.247Z,98473.53
2022-10-24T11:09:04.007Z,98472.72
2022-10-24T11:11:35.939Z,98475.38
2022-10-24T11:14:33.226Z,98478.72
2022-10-24T11:17:41.583Z,98478.53
2022-10-24T11:20:20.240Z,98477.91
2022-10-24T11:22:54.300Z,98484.13
2022-10-24T11:25:24.209Z,98477.50
2022-10-24T11:28:01.588Z,98479.63
2022-10-24T11:30:42.749Z,98478.72
2022-10-24T11:33:17.851Z,98482.28
2022-10-24T11:36:07.927Z,98482.97
2022-10-24T11:38:41.194Z,98480.34
2022-10-24T11:41:35.946Z,98481.75
2022-10-24T11:44:32.502Z,98490.16
2022-10-24T11:47:24.981Z,98485.47
2022-10-24T11:50:24.709Z,98491.59
2022-10-24T11:52:56.075Z,98498.19
2022-10-24T11:55:39.135Z,98500.13
2022-10-24T11:58:19.825Z,98502.91
2022-10-24T12:01:08.485Z,98502.00
2022-10-24T12:04:18.440Z,98505.78
2022-10-24T12:07:30.704Z,98527.41
2022-10-24T12:10:06.500Z,98536.34
2022-10-24T12:12:42.127Z,98519.25
2022-10-24T12:15:41.327Z,98546.34
2022-10-24T12:18:23.553Z,98543.19
2022-10-24T12:20:53.458Z,98541.66
2022-10-24T12:23:27.670Z,98548.25
2022-10-24T12:26:14.487Z,98543.97
2022-10-24T12:28:42.224Z,98547.69
2022-10-24T12:31:14.926Z,98550.94
2022-10-24T12:33:43.263Z,98557.81
2022-10-24T12:36:10.843Z,98557.34
2022-10-24T12:38:37.505Z,98549.00
2022-10-24T12:41:09.354Z,98552.66
2022-10-24T12:43:42.613Z,98558.16
2022-10-24T12:46:21.744Z,98554.16
2022-10-24T12:48:58.527Z,98557.03
2022-10-24T12:51:26.740Z,98555.66
2022-10-24T12:54:11.115Z,98555.50
2022-10-24T12:56:53.381Z,98554.81
2022-10-24T12:59:28.655Z,98558.81
2022-10-24T13:02:13.772Z,98551.28
2022-10-24T13:05:12.841Z,98552.72
2022-10-24T13:07:51.856Z,98556.69
2022-10-24T13:10:56.215Z,98556.41
2022-10-24T13:13:44.602Z,98564.91
2022-10-24T13:16:16.893Z,98563.78
2022-10-24T13:19:04.167Z,98562.31
2022-10-24T13:21:49.588Z,98554.97
2022-10-24T13:24:16.326Z,98566.94
2022-10-24T13:26:44.712Z,98558.69
2022-10-24T13:29:26.129Z,98557.84
2022-10-24T13:32:18.683Z,98557.75
2022-10-24T13:34:50.380Z,98569.19
2022-10-24T13:37:27.176Z,98560.72
2022-10-24T13:39:55.896Z,98561.25
2022-10-24T13:42:40.957Z,98554.38
2022-10-24T13:45:25.084Z,98560.13
2022-10-24T13:48:06.406Z,98556.75
2022-10-24T13:50:38.859Z,98547.25
2022-10-24T13:53:30.386Z,98555.31
2022-10-24T13:56:02.790Z,98552.78
2022-10-24T13:58:40.992Z,98549.19
2022-10-24T14:01:27.677Z,98551.41
2022-10-24T14:03:56.422Z,98558.16
2022-10-24T14:06:32.629Z,98563.34
2022-10-24T14:09:10.549Z,98562.53
2022-10-24T14:11:46.420Z,98563.56
2022-10-24T14:14:30.359Z,98560.72
2022-10-24T14:17:23.915Z,98558.66
2022-10-24T14:20:00.447Z,98564.41
2022-10-24T14:22:45.276Z,98561.31
2022-10-24T14:25:26.115Z,98565.00
2022-10-24T14:28:58.644Z,98566.44
2022-10-24T14:31:34.734Z,98561.75
2022-10-24T14:34:06.144Z,98562.06
2022-10-24T14:36:37.922Z,98568.06
2022-10-24T14:39:06.106Z,98565.31
2022-10-24T14:41:41.205Z,98579.75
2022-10-24T14:44:08.392Z,98574.28
2022-10-24T14:46:37.977Z,98583.19
2022-10-24T14:49:22.746Z,98585.84
2022-10-24T14:52:09.179Z,98588.50
2022-10-24T14:54:36.640Z,98590.25
2022-10-24T14:57:09.252Z,98591.97
2022-10-24T14:59:39.743Z,98590.34
2022-10-24T15:02:31.395Z,98595.03
2022-10-24T15:05:35.474Z,98600.25
2022-10-24T15:08:21.442Z,98599.31
2022-10-24T15:10:50.158Z,98601.97
2022-10-24T15:13:21.782Z,98597.50
2022-10-24T15:15:55.596Z,98596.06
2022-10-24T15:18:23.947Z,98600.47
2022-10-24T15:21:01.714Z,98601.59
2022-10-24T15:23:33.714Z,98601.06
2022-10-24T15:26:07.678Z,98610.47
2022-10-24T15:28:37.668Z,98606.91
2022-10-24T15:31:10.853Z,98606.59
2022-10-24T15:36:19.548Z,98610.88
2022-10-24T15:38:46.366Z,98619.81
2022-10-24T15:41:13.129Z,98616.25
2022-10-24T15:43:40.433Z,98622.16
2022-10-24T15:46:07.563Z,98620.91
2022-10-24T15:48:34.257Z,98630.91
2022-10-24T15:51:00.911Z,98632.31
2022-10-24T15:53:27.576Z,98627.41
2022-10-24T15:55:54.256Z,98642.53
2022-10-24T15:58:22.319Z,98639.13
2022-10-24T16:00:50.769Z,98633.81
2022-10-24T16:03:22.473Z,98635.53
2022-10-24T16:05:53.039Z,98639.78
2022-10-24T16:08:24.098Z,98639.56
2022-10-24T16:10:53.977Z,98645.16
2022-10-24T16:13:22.116Z,98647.75
2022-10-24T16:15:50.516Z,98642.31
2022-10-24T16:18:17.359Z,98653.63
2022-10-24T16:20:44.863Z,98647.84
2022-10-24T16:23:15.030Z,98650.34
2022-10-24T16:25:41.697Z,98653.69
2022-10-24T16:28:08.477Z,98656.22
2022-10-24T16:30:37.403Z,98665.66
2022-10-24T16:33:04.139Z,98673.47
2022-10-24T16:35:33.732Z,98680.44
2022-10-24T16:38:01.468Z,98677.75
2022-10-24T16:40:29.053Z,98685.53
2022-10-24T16:42:57.822Z,98692.72
2022-10-24T16:45:24.944Z,98697.47
2022-10-24T16:47:52.377Z,98696.41
2022-10-24T16:50:25.179Z,98687.41
2022-10-24T16:52:53.774Z,98695.13
2022-10-24T16:55:22.978Z,98696.28
2022-10-24T16:57:51.151Z,98702.59
2022-10-24T17:00:20.781Z,98706.78
2022-10-24T17:02:51.362Z,98703.78
2022-10-24T17:05:21.105Z,98702.72
2022-10-24T17:07:48.213Z,98717.34
2022-10-24T17:10:18.448Z,98721.75
2022-10-24T17:12:47.801Z,98719.06
2022-10-24T17:15:18.115Z,98731.41
2022-10-24T17:17:48.092Z,98736.50
2022-10-24T17:20:15.499Z,98743.13
2022-10-24T17:22:44.544Z,98756.38
2022-10-24T17:25:24.102Z,98753.31
2022-10-24T17:27:51.720Z,98759.06
2022-10-24T17:30:25.864Z,98759.59
2022-10-24T17:32:53.808Z,98759.91
2022-10-24T17:35:23.156Z,98765.13
2022-10-24T17:37:57.500Z,98763.25
2022-10-24T17:40:28.062Z,98769.34
2022-10-24T17:42:56.436Z,98770.44
2022-10-24T17:45:25.307Z,98777.34
2022-10-24T17:47:52.352Z,98782.84
2022-10-24T17:50:19.805Z,98780.97
2022-10-24T17:52:51.128Z,98785.97
2022-10-24T17:55:46.241Z,98786.53
2022-10-24T17:58:13.590Z,98792.59
2022-10-24T18:00:40.639Z,98800.00
2022-10-24T18:03:11.898Z,98805.25
2022-10-24T18:05:39.324Z,98800.84
2022-10-24T18:08:08.969Z,98808.56
2022-10-24T18:10:41.695Z,98817.34
2022-10-24T18:13:13.146Z,98824.22
2022-10-24T18:15:40.306Z,98831.09
2022-10-24T18:18:07.056Z,98835.25
2022-10-24T18:20:34.812Z,98835.00
2022-10-24T18:23:02.019Z,98836.06
2022-10-24T18:25:29.132Z,98845.69
2022-10-24T18:27:56.439Z,98850.91
2022-10-24T18:30:23.234Z,98841.88
2022-10-24T18:32:50.473Z,98841.56
2022-10-24T18:35:17.386Z,98848.97
2022-10-24T18:37:44.255Z,98848.13
2022-10-24T18:40:11.752Z,98855.28
2022-10-24T18:42:48.112Z,98847.28
2022-10-24T18:45:22.819Z,98857.75
2022-10-24T18:47:50.643Z,98859.41
2022-10-24T18:50:20.724Z,98864.63
2022-10-24T18:52:58.954Z,98858.06
2022-10-24T18:55:30.046Z,98870.44
2022-10-24T18:57:58.976Z,98875.94
2022-10-24T19:00:30.552Z,98883.91
2022-10-24T19:03:16.769Z,98884.72
2022-10-24T19:05:54.537Z,98890.50
2022-10-24T19:08:24.491Z,98889.41
2022-10-24T19:10:52.900Z,98885.56
2022-10-24T19:13:19.718Z,98887.75
2022-10-24T19:15:53.722Z,98890.50
2022-10-24T19:18:21.009Z,98886.13
2022-10-24T19:20:47.904Z,98889.69
2022-10-24T19:23:17.267Z,98894.88
2022-10-24T19:25:44.797Z,98898.44
2022-10-24T19:28:15.474Z,98891.31
2022-10-24T19:30:45.620Z,98892.16
2022-10-24T19:33:17.188Z,98896.28
2022-10-24T19:35:47.853Z,98891.06
2022-10-24T19:38:16.079Z,98887.50
2022-10-24T19:40:53.972Z,98900.38
2022-10-24T19:43:22.226Z,98896.81
2022-10-24T19:45:50.423Z,98904.50
2022-10-24T19:48:22.666Z,98905.31
2022-10-24T19:50:49.766Z,98904.75
2022-10-24T19:53:16.757Z,98909.16
2022-10-24T19:55:44.252Z,98906.41
2022-10-24T19:58:11.688Z,98906.16
2022-10-24T20:00:38.577Z,98913.56
2022-10-24T20:03:05.659Z,98914.09
2022-10-24T20:05:32.559Z,98915.75
2022-10-24T20:07:59.140Z,98913.56
2022-10-24T20:10:26.286Z,98921.78
2022-10-24T20:12:52.883Z,98920.13
2022-10-24T20:15:19.650Z,98920.13
2022-10-24T20:17:46.647Z,98924.50
2022-10-24T20:20:13.321Z,98916.56
2022-10-24T20:22:40.319Z,98926.69
2022-10-24T20:25:07.595Z,98922.56
2022-10-24T20:27:34.342Z,98932.16
2022-10-24T20:30:01.033Z,98934.91
2022-10-24T20:32:27.687Z,98933.00
2022-10-24T20:34:54.303Z,98940.94
2022-10-24T20:37:20.917Z,98937.38
2022-10-24T20:39:47.793Z,98940.41
2022-10-24T20:42:15.987Z,98955.75
2022-10-24T20:44:42.588Z,98957.66
2022-10-24T20:47:09.420Z,98956.84
2022-10-24T20:49:36.145Z,98965.88
2022-10-24T20:52:02.951Z,98958.47
2022-10-24T20:54:29.562Z,98968.06
2022-10-24T20:56:56.198Z,98962.03
2022-10-24T20:59:23.263Z,98968.31
2022-10-24T21:01:50.471Z,98974.34
2022-10-24T21:04:20.648Z,98978.72
2022-10-24T21:06:47.818Z,98983.66
2022-10-24T21:09:15.253Z,98981.47
2022-10-24T21:11:41.837Z,98992.41
2022-10-24T21:14:11.808Z,98989.38
2022-10-24T21:16:40.158Z,99000.34
2022-10-24T21:19:08.168Z,99008.03
2022-10-24T21:21:34.843Z,99005.81
2022-10-24T21:24:05.718Z,99020.06
2022-10-24T21:26:38.626Z,99023.63
2022-10-24T21:29:27.898Z,99021.97
2022-10-24T21:31:52.818Z,99024.69
2022-10-24T21:34:20.112Z,99036.75
2022-10-24T21:36:47.107Z,99029.63
2022-10-24T21:39:15.298Z,99040.31
2022-10-24T21:41:42.545Z,99042.25
2022-10-24T21:44:09.849Z,99039.25
2022-10-24T21:46:36.509Z,99041.16
2022-10-24T21:49:03.769Z,99043.03
2022-10-24T21:51:33.339Z,99051.00
2022-10-24T21:54:06.049Z,99052.88
2022-10-24T21:56:36.885Z,99051.25
2022-10-24T21:59:06.629Z,99055.94
2022-10-24T22:01:36.264Z,99052.66
2022-10-24T22:04:03.941Z,99055.41
2022-10-24T22:06:31.985Z,99070.44
2022-10-24T22:08:59.006Z,99064.66
2022-10-24T22:11:28.114Z,99064.13
2022-10-24T22:13:55.318Z,99067.97
2022-10-24T22:16:24.901Z,99075.91
2022-10-24T22:18:52.502Z,99073.75
2022-10-24T22:21:28.647Z,99068.50
2022-10-24T22:23:57.040Z,99070.72
2022-10-24T22:26:24.200Z,99066.88
2022-10-24T22:28:51.574Z,99067.69
2022-10-24T22:31:18.896Z,99073.75
2022-10-24T22:33:45.976Z,99080.06
2022-10-24T22:36:28.680Z,99075.13
2022-10-24T22:38:55.936Z,99077.06
2022-10-24T22:41:23.201Z,99087.78
2022-10-24T22:43:51.830Z,99079.28
2022-10-24T22:46:33.766Z,99081.19
2022-10-24T22:49:20.367Z,99081.75
2022-10-24T22:51:47.236Z,99098.19
2022-10-24T22:54:19.769Z,99094.13
2022-10-24T22:56:47.279Z,99104.00
2022-10-24T22:59:15.572Z,99107.63
2022-10-24T23:02:00.700Z,99102.16
2022-10-24T23:04:30.011Z,99098.03
2022-10-24T23:07:00.234Z,99095.03
2022-10-24T23:09:26.805Z,99110.91
2022-10-24T23:11:54.016Z,99117.22
2022-10-24T23:14:21.038Z,99122.75
2022-10-24T23:16:59.904Z,99122.22
2022-10-24T23:19:28.014Z,99124.69
2022-10-24T23:22:22.054Z,99126.91
2022-10-24T23:24:50.145Z,99120.88
2022-10-24T23:27:28.218Z,99130.22
2022-10-24T23:29:55.215Z,99132.13
2022-10-24T23:32:38.005Z,99135.94
2022-10-24T23:35:05.442Z,99135.72
2022-10-24T23:37:35.873Z,99134.03
2022-10-24T23:40:14.792Z,99144.47
2022-10-24T23:42:45.868Z,99152.41
2022-10-24T23:45:15.456Z,99158.19
2022-10-24T23:47:56.591Z,99148.31
2022-10-24T23:50:48.335Z,99167.75
2022-10-24T23:53:18.071Z,99156.44
2022-10-24T23:55:45.181Z,99157.00
2022-10-24T23:58:12.336Z,99154.75
